createdAt,value
2017-10-16T00:01:26.078Z,17.93
2017-10-16T00:03:53.878Z,18.70
2017-10-16T00:06:21.726Z,17.30
2017-10-16T00:08:49.394Z,18.77
2017-10-16T00:11:17.034Z,16.90
2017-10-16T00:13:44.603Z,17.50
2017-10-16T00:16:12.245Z,19.20
2017-10-16T00:18:39.921Z,18.60
2017-10-16T00:21:07.639Z,18.00
2017-10-16T00:23:35.265Z,18.70
2017-10-16T00:26:02.896Z,18.33
2017-10-16T00:28:30.526Z,18.80
2017-10-16T00:30:58.182Z,18.53
2017-10-16T00:33:25.992Z,18.73
2017-10-16T00:35:53.571Z,21.43
2017-10-16T00:38:21.164Z,18.93
2017-10-16T00:40:48.748Z,18.23
2017-10-16T00:43:16.785Z,20.17
2017-10-16T00:45:44.425Z,19.20
2017-10-16T00:48:12.044Z,21.47
2017-10-16T00:50:39.618Z,20.10
2017-10-16T00:53:07.248Z,19.93
2017-10-16T00:55:34.841Z,20.43
2017-10-16T00:58:02.758Z,20.80
2017-10-16T01:00:30.488Z,21.10
2017-10-16T01:02:58.121Z,19.63
2017-10-16T01:05:25.901Z,17.93
2017-10-16T01:07:53.588Z,17.00
2017-10-16T01:10:21.266Z,18.07
2017-10-16T01:12:48.979Z,18.90
2017-10-16T01:15:16.601Z,19.17
2017-10-16T01:17:44.254Z,16.90
2017-10-16T01:20:11.841Z,19.10
2017-10-16T01:22:39.509Z,18.93
2017-10-16T01:25:07.138Z,20.27
2017-10-16T01:27:34.794Z,31.20
2017-10-16T01:30:04.035Z,45.57
2017-10-16T01:32:31.836Z,36.77
2017-10-16T01:34:59.466Z,35.53
2017-10-16T01:37:27.112Z,30.13
2017-10-16T01:39:54.723Z,33.07
2017-10-16T01:42:22.394Z,36.97
2017-10-16T01:44:50.035Z,37.53
2017-10-16T01:47:17.832Z,39.80
2017-10-16T01:49:45.473Z,40.93
2017-10-16T01:52:13.193Z,41.77
2017-10-16T01:54:40.789Z,39.80
2017-10-16T01:57:08.482Z,36.33
2017-10-16T01:59:36.185Z,36.27
2017-10-16T02:02:03.835Z,39.23
2017-10-16T02:04:31.450Z,43.10
2017-10-16T02:06:59.025Z,31.80
2017-10-16T02:09:27.059Z,26.53
2017-10-16T02:11:54.639Z,19.70
2017-10-16T02:14:22.255Z,20.47
2017-10-16T02:16:49.862Z,20.07
2017-10-16T02:19:17.678Z,20.13
2017-10-16T02:21:45.317Z,21.37
2017-10-16T02:24:12.970Z,20.20
2017-10-16T02:26:40.987Z,20.17
2017-10-16T02:29:08.619Z,18.67
2017-10-16T02:31:36.208Z,19.00
2017-10-16T02:34:03.975Z,20.73
2017-10-16T02:36:32.059Z,19.17
2017-10-16T02:39:01.251Z,18.67
2017-10-16T02:41:37.372Z,19.30
2017-10-16T02:44:05.114Z,18.17
2017-10-16T02:46:33.467Z,19.87
2017-10-16T02:49:01.068Z,20.67
2017-10-16T02:51:28.662Z,17.93
2017-10-16T02:53:56.466Z,19.30
2017-10-16T02:56:24.038Z,19.37
2017-10-16T02:58:51.635Z,19.63
2017-10-16T03:01:19.223Z,18.70
2017-10-16T03:03:46.808Z,20.60
2017-10-16T03:06:15.287Z,21.27
2017-10-16T03:08:42.896Z,20.50
2017-10-16T03:11:10.473Z,19.17
2017-10-16T03:13:38.080Z,18.07
2017-10-16T03:16:05.764Z,18.50
2017-10-16T03:18:33.299Z,21.93
2017-10-16T03:21:01.402Z,20.63
2017-10-16T03:23:29.006Z,19.93
2017-10-16T03:25:56.561Z,22.33
2017-10-16T03:28:24.332Z,20.60
2017-10-16T03:30:51.934Z,20.83
2017-10-16T03:33:19.698Z,19.90
2017-10-16T03:35:47.430Z,20.40
2017-10-16T03:38:15.007Z,19.60
2017-10-16T03:40:42.530Z,20.17
2017-10-16T03:43:10.064Z,19.07
2017-10-16T03:45:38.208Z,20.13
2017-10-16T03:48:05.799Z,20.00
2017-10-16T03:50:33.365Z,20.30
2017-10-16T03:53:01.008Z,21.30
2017-10-16T03:55:28.696Z,19.50
2017-10-16T03:57:56.350Z,21.30
2017-10-16T04:00:24.049Z,21.40
2017-10-16T04:02:51.705Z,21.60
2017-10-16T04:05:19.456Z,20.97
2017-10-16T04:07:47.142Z,23.07
2017-10-16T04:10:14.774Z,23.30
2017-10-16T04:12:42.337Z,21.50
2017-10-16T04:15:09.964Z,20.40
2017-10-16T04:17:37.597Z,20.23
2017-10-16T04:20:05.194Z,18.50
2017-10-16T04:22:32.830Z,17.90
2017-10-16T04:25:00.445Z,17.93
2017-10-16T04:27:28.024Z,17.13
2017-10-16T04:29:55.589Z,18.50
2017-10-16T04:32:23.226Z,18.13
2017-10-16T04:34:50.755Z,18.60
2017-10-16T04:37:18.330Z,19.10
2017-10-16T04:39:45.900Z,17.83
2017-10-16T04:42:13.802Z,19.57
2017-10-16T04:44:41.367Z,17.77
2017-10-16T04:47:09.027Z,20.00
2017-10-16T04:49:36.642Z,19.97
2017-10-16T04:52:04.194Z,22.23
2017-10-16T04:54:31.802Z,21.10
2017-10-16T04:56:59.341Z,20.47
2017-10-16T04:59:27.092Z,20.20
2017-10-16T05:01:54.662Z,21.47
2017-10-16T05:04:22.215Z,18.20
2017-10-16T05:06:49.746Z,19.60
2017-10-16T05:09:17.403Z,19.23
2017-10-16T05:11:44.981Z,18.87
2017-10-16T05:14:12.567Z,20.03
2017-10-16T05:16:40.155Z,20.27
2017-10-16T05:19:07.740Z,21.00
2017-10-16T05:21:35.298Z,21.17
2017-10-16T05:24:02.993Z,20.70
2017-10-16T05:26:30.574Z,22.10
2017-10-16T05:28:58.131Z,23.23
2017-10-16T05:31:25.703Z,23.23
2017-10-16T05:33:53.309Z,20.80
2017-10-16T05:36:20.854Z,19.67
2017-10-16T05:38:48.485Z,21.70
2017-10-16T05:41:16.034Z,21.20
2017-10-16T05:43:43.558Z,20.50
2017-10-16T05:46:11.146Z,22.27
2017-10-16T05:48:38.767Z,21.73
2017-10-16T05:51:06.320Z,20.73
2017-10-16T05:53:33.910Z,22.80
2017-10-16T05:56:01.443Z,22.13
2017-10-16T05:58:28.987Z,22.67
2017-10-16T06:00:56.610Z,23.20
2017-10-16T06:03:24.137Z,22.40
2017-10-16T06:05:51.702Z,21.03
2017-10-16T06:08:19.314Z,22.00
2017-10-16T06:10:46.909Z,23.67
2017-10-16T06:13:14.486Z,23.00
2017-10-16T06:15:42.092Z,22.57
2017-10-16T06:18:09.747Z,25.47
2017-10-16T06:20:37.284Z,23.70
2017-10-16T06:23:04.891Z,25.00
2017-10-16T06:25:32.422Z,23.60
2017-10-16T06:28:01.192Z,23.00
2017-10-16T06:30:28.820Z,23.97
2017-10-16T06:32:56.394Z,21.50
2017-10-16T06:35:23.980Z,23.47
2017-10-16T06:37:51.581Z,22.10
2017-10-16T06:40:19.154Z,22.73
2017-10-16T06:42:46.748Z,22.00
2017-10-16T06:45:14.448Z,24.60
2017-10-16T06:47:41.995Z,21.50
2017-10-16T06:50:09.521Z,22.53
2017-10-16T06:52:37.077Z,23.63
2017-10-16T06:55:04.604Z,23.80
2017-10-16T06:57:32.169Z,25.77
2017-10-16T06:59:59.743Z,24.57
2017-10-16T07:02:27.359Z,26.50
2017-10-16T07:04:55.017Z,24.37
2017-10-16T07:07:23.369Z,23.63
2017-10-16T07:09:50.989Z,25.20
2017-10-16T07:12:18.649Z,25.60
2017-10-16T07:14:46.247Z,24.60
2017-10-16T07:17:13.880Z,23.70
2017-10-16T07:19:41.496Z,24.43
2017-10-16T07:22:09.142Z,22.70
2017-10-16T07:24:36.797Z,25.30
2017-10-16T07:27:04.403Z,22.80
2017-10-16T07:29:32.012Z,19.90
2017-10-16T07:31:59.649Z,18.80
2017-10-16T07:34:27.229Z,20.20
2017-10-16T07:36:54.814Z,19.47
2017-10-16T07:39:22.428Z,21.10
2017-10-16T07:41:50.037Z,19.90
2017-10-16T07:44:17.857Z,20.67
2017-10-16T07:46:45.483Z,22.10
2017-10-16T07:49:13.333Z,22.30
2017-10-16T07:51:41.150Z,19.97
2017-10-16T07:54:08.798Z,21.77
2017-10-16T07:56:36.445Z,23.60
2017-10-16T07:59:04.039Z,19.80
2017-10-16T08:01:31.677Z,21.20
2017-10-16T08:03:59.326Z,17.87
2017-10-16T08:06:26.938Z,18.37
2017-10-16T08:08:54.544Z,20.53
2017-10-16T08:11:22.134Z,19.00
2017-10-16T08:13:49.752Z,22.87
2017-10-16T08:16:17.385Z,21.20
2017-10-16T08:18:44.972Z,18.20
2017-10-16T08:21:12.537Z,19.87
2017-10-16T08:23:40.367Z,20.80
2017-10-16T08:26:08.910Z,21.90
2017-10-16T08:28:36.592Z,20.63
2017-10-16T08:31:04.657Z,23.17
2017-10-16T08:33:32.288Z,22.73
2017-10-16T08:35:59.986Z,24.60
2017-10-16T08:38:27.661Z,22.70
2017-10-16T08:40:55.280Z,21.70
2017-10-16T08:43:22.937Z,21.20
2017-10-16T08:45:50.601Z,20.23
2017-10-16T08:48:18.219Z,20.97
2017-10-16T08:50:45.837Z,19.00
2017-10-16T08:53:13.468Z,20.47
2017-10-16T08:55:41.069Z,20.10
2017-10-16T08:58:08.755Z,20.27
2017-10-16T09:00:36.419Z,20.13
2017-10-16T09:03:04.027Z,19.00
2017-10-16T09:05:32.173Z,19.50
2017-10-16T09:07:59.832Z,17.93
2017-10-16T09:10:27.464Z,17.77
2017-10-16T09:12:55.063Z,18.67
2017-10-16T09:15:22.754Z,19.03
2017-10-16T09:17:50.352Z,18.43
2017-10-16T09:20:18.041Z,17.13
2017-10-16T09:22:45.747Z,17.30
2017-10-16T09:25:13.358Z,18.07
2017-10-16T09:27:41.011Z,16.70
2017-10-16T09:30:08.790Z,17.50
2017-10-16T09:32:36.392Z,17.03
2017-10-16T09:35:04.110Z,17.00
2017-10-16T09:37:31.781Z,17.30
2017-10-16T09:39:59.468Z,18.13
2017-10-16T09:42:27.092Z,17.30
2017-10-16T09:44:54.760Z,17.13
2017-10-16T09:47:22.335Z,16.80
2017-10-16T09:49:49.944Z,16.57
2017-10-16T09:52:17.593Z,15.87
2017-10-16T09:54:45.426Z,15.87
2017-10-16T09:57:13.079Z,16.80
2017-10-16T09:59:40.713Z,16.40
2017-10-16T10:02:08.397Z,16.57
2017-10-16T10:04:36.042Z,15.23
2017-10-16T10:07:03.698Z,15.97
2017-10-16T10:09:31.332Z,14.33
2017-10-16T10:11:58.974Z,12.47
2017-10-16T10:14:26.643Z,16.83
2017-10-16T10:16:54.293Z,15.53
2017-10-16T10:19:21.925Z,18.20
2017-10-16T10:21:49.747Z,15.00
2017-10-16T10:24:17.367Z,15.13
2017-10-16T10:26:45.161Z,16.53
2017-10-16T10:29:12.801Z,17.30
2017-10-16T10:31:40.453Z,17.63
2017-10-16T10:34:08.075Z,16.40
2017-10-16T10:36:35.783Z,15.83
2017-10-16T10:39:03.500Z,15.90
2017-10-16T10:41:31.126Z,15.40
2017-10-16T10:43:58.712Z,16.00
2017-10-16T10:46:26.419Z,15.33
2017-10-16T10:48:54.059Z,15.40
2017-10-16T10:51:21.653Z,15.20
2017-10-16T10:53:49.283Z,15.60
2017-10-16T10:56:16.865Z,15.17
2017-10-16T10:58:44.432Z,16.03
2017-10-16T11:01:12.081Z,17.47
2017-10-16T11:03:39.651Z,16.80
2017-10-16T11:06:07.254Z,15.93
2017-10-16T11:08:34.906Z,15.60
2017-10-16T11:11:02.488Z,16.93
2017-10-16T11:13:30.066Z,16.70
2017-10-16T11:15:57.802Z,17.53
2017-10-16T11:18:25.424Z,19.17
2017-10-16T11:20:53.050Z,20.17
2017-10-16T11:23:20.753Z,20.77
2017-10-16T11:25:48.349Z,18.67
2017-10-16T11:28:15.938Z,19.40
2017-10-16T11:30:43.602Z,21.07
2017-10-16T11:33:11.257Z,19.20
2017-10-16T11:35:38.866Z,19.10
2017-10-16T11:38:06.514Z,20.67
2017-10-16T11:40:34.329Z,22.23
2017-10-16T11:43:01.978Z,21.80
2017-10-16T11:45:29.612Z,20.47
2017-10-16T11:47:57.254Z,20.83
2017-10-16T11:50:24.892Z,18.50
2017-10-16T11:52:52.540Z,17.33
2017-10-16T11:55:20.175Z,17.90
2017-10-16T11:57:47.839Z,18.37
2017-10-16T12:00:15.691Z,18.33
2017-10-16T12:02:43.326Z,17.73
2017-10-16T12:05:11.016Z,20.63
2017-10-16T12:07:38.648Z,21.00
2017-10-16T12:10:06.298Z,18.40
2017-10-16T12:12:33.924Z,18.30
2017-10-16T12:15:01.585Z,16.93
2017-10-16T12:17:29.186Z,14.27
2017-10-16T12:19:56.790Z,12.53
2017-10-16T12:22:25.431Z,12.33
2017-10-16T12:24:53.048Z,11.60
2017-10-16T12:27:20.660Z,11.93
2017-10-16T12:29:48.305Z,10.60
2017-10-16T12:32:15.937Z,10.40
2017-10-16T12:34:44.312Z,11.03
2017-10-16T12:37:11.919Z,10.33
2017-10-16T12:39:39.580Z,10.30
2017-10-16T12:42:07.536Z,10.30
2017-10-16T12:44:35.154Z,10.60
2017-10-16T12:47:02.816Z,9.33
2017-10-16T12:49:30.401Z,8.80
2017-10-16T12:51:58.009Z,9.47
2017-10-16T12:54:25.624Z,9.33
2017-10-16T12:56:53.221Z,9.00
2017-10-16T12:59:20.877Z,9.37
2017-10-16T13:01:48.537Z,9.80
2017-10-16T13:04:17.309Z,7.77
2017-10-16T13:06:44.880Z,8.50
2017-10-16T13:09:12.488Z,8.90
2017-10-16T13:11:40.085Z,8.60
2017-10-16T13:14:07.684Z,8.30
2017-10-16T13:16:35.357Z,7.17
2017-10-16T13:19:02.985Z,8.03
2017-10-16T13:21:30.597Z,7.13
2017-10-16T13:23:58.238Z,9.00
2017-10-16T13:26:25.855Z,8.43
2017-10-16T13:28:53.544Z,8.67
2017-10-16T13:31:21.219Z,8.40
2017-10-16T13:33:48.849Z,7.57
2017-10-16T13:36:16.560Z,8.40
2017-10-16T13:38:44.234Z,8.77
2017-10-16T13:41:11.880Z,8.70
2017-10-16T13:43:39.551Z,7.90
2017-10-16T13:46:07.249Z,8.97
2017-10-16T13:48:34.912Z,8.70
2017-10-16T13:51:03.316Z,7.50
2017-10-16T13:53:30.995Z,9.00
2017-10-16T13:55:58.808Z,7.10
2017-10-16T13:58:26.490Z,9.10
2017-10-16T14:00:54.197Z,8.77
2017-10-16T14:03:21.805Z,7.53
2017-10-16T14:05:49.389Z,6.90
2017-10-16T14:08:18.037Z,6.27
2017-10-16T14:10:46.236Z,6.73
2017-10-16T14:13:13.870Z,6.30
2017-10-16T14:15:41.504Z,7.60
2017-10-16T14:18:09.158Z,6.60
2017-10-16T14:20:36.766Z,7.67
2017-10-16T14:23:04.464Z,8.47
2017-10-16T14:25:32.146Z,7.03
2017-10-16T14:27:59.888Z,9.00
2017-10-16T14:30:30.880Z,8.60
2017-10-16T14:32:58.859Z,8.03
2017-10-16T14:35:26.517Z,7.30
2017-10-16T14:37:54.945Z,8.10
2017-10-16T14:40:22.542Z,10.87
2017-10-16T14:42:50.182Z,7.70
2017-10-16T14:45:18.031Z,9.20
2017-10-16T14:47:45.688Z,9.17
2017-10-16T14:50:13.333Z,10.13
2017-10-16T14:52:41.080Z,8.37
2017-10-16T14:55:09.355Z,8.60
2017-10-16T14:57:37.033Z,10.10
2017-10-16T15:00:08.214Z,9.70
2017-10-16T15:02:35.800Z,8.73
2017-10-16T15:05:04.308Z,10.40
2017-10-16T15:07:32.025Z,8.77
2017-10-16T15:09:59.765Z,8.63
2017-10-16T15:12:27.434Z,9.43
2017-10-16T15:14:55.687Z,9.50
2017-10-16T15:17:23.371Z,10.60
2017-10-16T15:19:50.982Z,15.77
2017-10-16T15:22:19.436Z,11.73
2017-10-16T15:24:47.489Z,13.33
2017-10-16T15:27:22.209Z,16.47
2017-10-16T15:29:50.616Z,15.80
2017-10-16T15:32:18.288Z,14.17
2017-10-16T15:34:45.941Z,13.60
2017-10-16T15:37:13.987Z,13.20
2017-10-16T15:39:41.766Z,10.23
2017-10-16T15:42:09.435Z,9.80
2017-10-16T15:44:38.029Z,10.37
2017-10-16T15:47:05.714Z,10.00
2017-10-16T15:49:33.337Z,9.27
2017-10-16T15:52:01.006Z,10.93
2017-10-16T15:54:28.747Z,18.30
2017-10-16T15:56:56.352Z,16.07
2017-10-16T15:59:24.601Z,16.87
2017-10-16T16:01:52.573Z,16.23
2017-10-16T16:04:20.193Z,18.57
2017-10-16T16:06:47.937Z,16.77
2017-10-16T16:09:16.585Z,14.90
2017-10-16T16:11:44.350Z,16.03
2017-10-16T16:14:11.981Z,14.67
2017-10-16T16:16:39.651Z,18.43
2017-10-16T16:19:07.281Z,16.30
2017-10-16T16:21:34.910Z,16.20
2017-10-16T16:24:02.570Z,15.03
2017-10-16T16:26:30.320Z,16.63
2017-10-16T16:28:58.068Z,18.90
2017-10-16T16:31:25.893Z,17.10
2017-10-16T16:33:53.580Z,17.57
2017-10-16T16:36:21.320Z,18.87
2017-10-16T16:38:49.017Z,21.10
2017-10-16T16:41:16.690Z,22.80
2017-10-16T16:43:44.410Z,22.57
2017-10-16T16:46:12.127Z,26.20
2017-10-16T16:48:39.887Z,29.13
2017-10-16T16:51:08.087Z,27.00
2017-10-16T16:53:36.506Z,21.23
2017-10-16T16:56:04.352Z,23.33
2017-10-16T16:58:31.956Z,26.50
2017-10-16T17:00:59.657Z,27.20
2017-10-16T17:03:27.328Z,21.00
2017-10-16T17:05:55.764Z,25.00
2017-10-16T17:08:23.442Z,24.80
2017-10-16T17:10:51.098Z,23.40
2017-10-16T17:13:18.774Z,24.50
2017-10-16T17:15:50.564Z,21.50
2017-10-16T17:18:18.229Z,18.70
2017-10-16T17:20:45.910Z,18.37
2017-10-16T17:23:13.665Z,21.40
2017-10-16T17:25:41.368Z,17.80
2017-10-16T17:28:12.293Z,21.13
2017-10-16T17:30:40.604Z,23.43
2017-10-16T17:33:08.288Z,23.23
2017-10-16T17:35:35.935Z,21.73
2017-10-16T17:38:03.566Z,19.80
2017-10-16T17:40:31.304Z,32.27
2017-10-16T17:42:58.974Z,28.67
2017-10-16T17:45:27.332Z,26.13
2017-10-16T17:47:55.017Z,28.90
2017-10-16T17:50:22.591Z,33.37
2017-10-16T17:52:50.748Z,35.93
2017-10-16T17:55:19.124Z,34.67
2017-10-16T17:57:47.018Z,31.77
2017-10-16T18:00:14.841Z,41.57
2017-10-16T18:02:42.492Z,47.90
2017-10-16T18:05:10.614Z,53.77
2017-10-16T18:07:38.331Z,62.37
2017-10-16T18:10:05.977Z,83.47
2017-10-16T18:12:34.515Z,82.30
2017-10-16T18:15:02.227Z,76.47
2017-10-16T18:17:29.961Z,51.20
2017-10-16T18:19:58.211Z,23.73
2017-10-16T18:22:26.013Z,50.83
2017-10-16T18:24:53.679Z,51.20
2017-10-16T18:27:21.290Z,38.07
2017-10-16T18:29:49.125Z,42.20
2017-10-16T18:32:17.354Z,41.70
2017-10-16T18:34:45.018Z,50.57
2017-10-16T18:37:12.629Z,49.40
2017-10-16T18:39:40.256Z,50.87
2017-10-16T18:42:07.977Z,55.23
2017-10-16T18:44:35.606Z,70.50
2017-10-16T18:47:03.481Z,59.67
2017-10-16T18:49:31.414Z,54.17
2017-10-16T18:51:59.742Z,52.60
2017-10-16T18:54:27.620Z,47.77
2017-10-16T18:56:55.306Z,54.50
2017-10-16T18:59:23.131Z,52.00
2017-10-16T19:01:50.788Z,45.67
2017-10-16T19:04:18.739Z,53.33
2017-10-16T19:06:47.040Z,49.80
2017-10-16T19:09:14.993Z,42.10
2017-10-16T19:11:42.589Z,38.37
2017-10-16T19:14:10.294Z,35.37
2017-10-16T19:16:38.049Z,29.57
2017-10-16T19:19:06.314Z,31.60
2017-10-16T19:21:34.001Z,34.50
2017-10-16T19:24:01.658Z,36.90
2017-10-16T19:26:29.286Z,42.10
2017-10-16T19:28:56.925Z,40.30
2017-10-16T19:31:24.574Z,50.40
2017-10-16T19:33:52.398Z,46.40
2017-10-16T19:36:20.040Z,42.03
2017-10-16T19:38:47.742Z,39.50
2017-10-16T19:41:15.389Z,37.43
2017-10-16T19:43:43.057Z,58.37
2017-10-16T19:46:10.853Z,43.87
2017-10-16T19:48:38.750Z,45.17
2017-10-16T19:51:07.158Z,48.03
2017-10-16T19:53:34.965Z,37.83
2017-10-16T19:56:02.681Z,28.33
2017-10-16T19:58:31.051Z,17.70
2017-10-16T20:00:58.750Z,18.00
2017-10-16T20:03:26.585Z,12.40
2017-10-16T20:05:54.311Z,13.10
2017-10-16T20:08:22.790Z,12.30
2017-10-16T20:10:50.587Z,12.13
2017-10-16T20:13:18.251Z,11.30
2017-10-16T20:15:45.982Z,10.13
2017-10-16T20:18:13.692Z,13.93
2017-10-16T20:20:41.393Z,11.13
2017-10-16T20:23:09.156Z,11.60
2017-10-16T20:25:37.018Z,11.83
2017-10-16T20:28:05.607Z,12.50
2017-10-16T20:30:33.397Z,16.17
2017-10-16T20:33:01.042Z,18.53
2017-10-16T20:35:28.697Z,21.90
2017-10-16T20:37:56.473Z,26.23
2017-10-16T20:40:24.090Z,26.10
2017-10-16T20:42:52.093Z,19.90
2017-10-16T20:45:19.786Z,16.80
2017-10-16T20:47:47.430Z,13.70
2017-10-16T20:50:16.495Z,13.73
2017-10-16T20:52:44.145Z,15.80
2017-10-16T20:55:11.829Z,13.07
2017-10-16T20:57:39.480Z,12.73
2017-10-16T21:00:07.315Z,11.67
2017-10-16T21:02:34.972Z,13.53
2017-10-16T21:05:02.689Z,13.63
2017-10-16T21:07:30.362Z,17.10
2017-10-16T21:09:57.995Z,16.30
2017-10-16T21:12:25.645Z,16.13
2017-10-16T21:14:53.451Z,17.73
2017-10-16T21:17:21.144Z,19.33
2017-10-16T21:19:48.811Z,18.97
2017-10-16T21:22:16.525Z,18.40
2017-10-16T21:24:44.176Z,18.33
2017-10-16T21:27:11.823Z,18.90
2017-10-16T21:29:39.639Z,22.20
2017-10-16T21:32:07.367Z,22.70
2017-10-16T21:34:35.019Z,21.33
2017-10-16T21:37:02.679Z,20.07
2017-10-16T21:39:30.386Z,23.17
2017-10-16T21:41:58.055Z,23.57
2017-10-16T21:44:25.941Z,25.47
2017-10-16T21:46:53.624Z,24.30
2017-10-16T21:49:21.282Z,23.67
2017-10-16T21:51:48.948Z,21.93
2017-10-16T21:54:16.679Z,22.60
2017-10-16T21:56:44.408Z,22.57
2017-10-16T21:59:12.114Z,21.00
2017-10-16T22:01:39.798Z,21.90
2017-10-16T22:04:07.423Z,22.50
2017-10-16T22:06:35.214Z,22.83
2017-10-16T22:09:02.904Z,22.00
2017-10-16T22:11:30.590Z,21.47
2017-10-16T22:13:58.215Z,23.17
2017-10-16T22:16:25.923Z,21.57
2017-10-16T22:18:53.650Z,19.83
2017-10-16T22:21:21.282Z,20.97
2017-10-16T22:23:49.899Z,20.90
2017-10-16T22:26:17.606Z,20.23
2017-10-16T22:28:45.190Z,21.00
2017-10-16T22:31:12.917Z,20.20
2017-10-16T22:33:40.577Z,20.10
2017-10-16T22:36:08.241Z,19.90
2017-10-16T22:38:35.921Z,20.60
2017-10-16T22:41:03.682Z,23.03
2017-10-16T22:43:31.330Z,23.43
2017-10-16T22:45:59.015Z,21.37
2017-10-16T22:48:26.848Z,22.60
2017-10-16T22:50:54.441Z,24.10
2017-10-16T22:53:22.115Z,23.20
2017-10-16T22:55:49.780Z,23.73
2017-10-16T22:58:17.402Z,22.37
2017-10-16T23:00:45.085Z,21.53
2017-10-16T23:03:12.698Z,23.80
2017-10-16T23:05:40.559Z,21.13
2017-10-16T23:08:08.205Z,22.47
2017-10-16T23:10:35.872Z,21.77
2017-10-16T23:13:03.474Z,23.30
2017-10-16T23:15:31.193Z,21.73
2017-10-16T23:17:58.904Z,20.50
2017-10-16T23:20:26.624Z,20.83
2017-10-16T23:22:54.284Z,20.23
2017-10-16T23:25:21.926Z,19.10
2017-10-16T23:27:49.588Z,16.80
2017-10-16T23:30:17.323Z,17.90
2017-10-16T23:32:44.929Z,18.67
2017-10-16T23:35:12.537Z,18.43
2017-10-16T23:37:40.186Z,17.77
2017-10-16T23:40:07.818Z,18.70
2017-10-16T23:42:35.468Z,17.30
2017-10-16T23:45:03.179Z,17.30
2017-10-16T23:47:30.800Z,15.40
2017-10-16T23:49:58.459Z,17.47
2017-10-16T23:52:26.125Z,16.90
2017-10-16T23:54:53.697Z,17.63
2017-10-16T23:57:21.330Z,17.03
2017-10-16T23:59:49.020Z,17.30
